Time;durP1;ratioP1;P1;durP2;ratioP2;P2;SDS_P1;SDS_P2;PMS_P1;PMS_P2;Temp;Humidity;BMP_temperature;BMP_pressure;BME280_temperature;BME280_humidity;BME280_pressure;Samples;Min_cycle;Max_cycle;Signal;HPM_P1;HPM_P2
2024/04/07 00:00:23;;;;;;;13.00;5.88;;;;;;;16.92;83.30;100543.28;5116315;27;20092;-56
2024/04/07 00:02:51;;;;;;;9.60;5.80;;;;;;;16.86;84.21;100544.63;5116174;27;20132;-57
2024/04/07 00:05:18;;;;;;;11.02;5.55;;;;;;;16.84;84.30;100546.59;5116154;27;20057;-56
2024/04/07 00:07:45;;;;;;;10.32;5.60;;;;;;;16.92;84.23;100548.69;5116044;27;20108;-58
2024/04/07 00:10:13;;;;;;;13.43;5.75;;;;;;;16.77;86.12;100569.63;5117380;27;20170;-55
2024/04/07 00:12:41;;;;;;;10.52;5.70;;;;;;;16.72;86.51;100571.84;5116107;27;20039;-56
2024/04/07 00:15:08;;;;;;;10.18;6.40;;;;;;;16.69;87.47;100573.91;5115967;27;20051;-56
2024/04/07 00:17:39;;;;;;;12.10;6.13;;;;;;;16.69;87.37;100560.44;5115878;27;20097;-55
2024/04/07 00:20:08;;;;;;;9.80;6.15;;;;;;;16.56;88.27;100568.63;5116249;27;20165;-59
2024/04/07 00:22:34;;;;;;;12.65;6.28;;;;;;;16.66;88.59;100571.44;5115481;27;20062;-56
2024/04/07 00:25:03;;;;;;;13.20;6.40;;;;;;;16.71;87.76;100572.84;5115915;27;20533;-54
2024/04/07 00:27:29;;;;;;;14.30;7.35;;;;;;;16.62;87.84;100572.69;5115880;27;20436;-57
2024/04/07 00:29:56;;;;;;;11.90;6.47;;;;;;;16.68;86.75;100572.19;5115958;27;20047;-57
2024/04/07 00:32:23;;;;;;;11.25;6.60;;;;;;;16.73;86.34;100572.72;5115859;27;20047;-56
2024/04/07 00:34:52;;;;;;;13.68;6.07;;;;;;;16.72;86.28;100571.00;5115090;27;20043;-57
2024/04/07 00:37:18;;;;;;;11.80;6.22;;;;;;;16.40;88.09;100569.00;5115537;27;20126;-55
2024/04/07 00:39:45;;;;;;;11.68;6.50;;;;;;;16.55;87.50;100575.88;5115710;27;20043;-57
2024/04/07 00:42:13;;;;;;;10.73;6.15;;;;;;;16.45;88.39;100582.97;5115578;27;20097;-57
2024/04/07 00:44:41;;;;;;;10.82;6.03;;;;;;;16.47;88.02;100575.63;5115658;27;20380;-57
2024/04/07 00:47:07;;;;;;;13.43;6.93;;;;;;;16.64;86.76;100579.66;5115322;27;20054;-57
2024/04/07 00:49:35;;;;;;;10.38;5.82;;;;;;;16.74;85.95;100577.13;5115480;27;20185;-55
2024/04/07 00:52:04;;;;;;;9.88;5.63;;;;;;;16.68;86.26;100577.56;5115542;27;20369;-56
2024/04/07 00:54:31;;;;;;;8.73;5.45;;;;;;;16.51;87.69;100581.63;5115464;27;20047;-60
2024/04/07 00:56:58;;;;;;;9.05;5.78;;;;;;;16.47;88.56;100577.44;5115461;27;20046;-57
2024/04/07 00:59:25;;;;;;;9.15;5.93;;;;;;;16.50;89.60;100572.69;5115283;27;20043;-56
2024/04/07 01:01:52;;;;;;;9.23;5.97;;;;;;;16.52;88.30;100578.81;5115154;27;20051;-54
2024/04/07 01:04:19;;;;;;;9.38;5.60;;;;;;;16.47;88.43;100575.63;5115008;27;20040;-55
2024/04/07 01:06:46;;;;;;;11.20;5.85;;;;;;;16.49;88.37;100576.34;5114837;27;20439;-55
2024/04/07 01:09:15;;;;;;;9.77;5.90;;;;;;;16.55;88.34;100583.09;5114710;27;20061;-57
2024/04/07 01:11:42;;;;;;;10.45;6.32;;;;;;;16.53;88.09;100585.91;5114996;27;20050;-55
2024/04/07 01:14:09;;;;;;;12.13;6.25;;;;;;;16.57;87.79;100579.28;5114908;27;20047;-55
2024/04/07 01:16:35;;;;;;;10.75;6.03;;;;;;;16.52;88.25;100568.03;5114829;27;20088;-57
2024/04/07 01:19:02;;;;;;;11.55;5.68;;;;;;;16.48;88.95;100569.25;5114824;27;20043;-58
2024/04/07 01:21:29;;;;;;;11.27;6.07;;;;;;;16.55;88.01;100562.41;5114751;27;20108;-54
2024/04/07 01:23:57;;;;;;;7.97;5.38;;;;;;;16.54;88.26;100565.22;5114454;27;20530;-55
2024/04/07 01:26:24;;;;;;;9.50;5.40;;;;;;;16.50;88.20;100570.00;5114631;27;20086;-56
2024/04/07 01:28:51;;;;;;;9.75;5.32;;;;;;;16.57;88.48;100575.72;5114572;27;20134;-56
2024/04/07 01:31:18;;;;;;;11.88;5.43;;;;;;;16.52;87.79;100580.66;5114171;27;20070;-57
2024/04/07 01:33:48;;;;;;;12.25;5.85;;;;;;;16.45;88.47;100580.28;5098254;27;20047;-58
2024/04/07 01:36:14;;;;;;;9.60;5.60;;;;;;;16.38;89.02;100575.47;5114562;27;20130;-55
2024/04/07 01:38:41;;;;;;;10.20;5.50;;;;;;;16.36;88.97;100578.31;5114454;27;20188;-56
2024/04/07 01:41:09;;;;;;;9.05;5.28;;;;;;;16.43;88.58;100576.00;5114343;27;20046;-55
2024/04/07 01:43:36;;;;;;;11.88;5.32;;;;;;;16.45;88.33;100582.97;5114353;27;20081;-55
2024/04/07 01:46:03;;;;;;;7.78;5.07;;;;;;;16.42;88.24;100580.53;5113522;27;20476;-55
2024/04/07 01:48:31;;;;;;;11.43;5.35;;;;;;;16.44;88.15;100586.63;5114433;27;20057;-57
2024/04/07 01:50:57;;;;;;;8.43;4.70;;;;;;;16.34;88.55;100588.34;5114373;27;20088;-57
2024/04/07 01:53:25;;;;;;;11.50;5.25;;;;;;;16.44;87.58;100591.16;5114189;27;20058;-55
2024/04/07 01:55:53;;;;;;;8.77;4.65;;;;;;;16.32;88.26;100590.31;5114042;27;20404;-57
2024/04/07 01:58:21;;;;;;;8.27;5.40;;;;;;;16.36;88.02;100594.47;5113897;27;20043;-55
2024/04/07 02:00:48;;;;;;;7.82;4.95;;;;;;;16.24;89.13;100595.44;5113773;27;20053;-56
2024/04/07 02:03:15;;;;;;;8.27;4.88;;;;;;;16.21;89.74;100590.25;5114033;27;20143;-55
2024/04/07 02:05:41;;;;;;;8.07;5.22;;;;;;;16.25;89.68;100591.75;5113771;28;20047;-57
2024/04/07 02:08:09;;;;;;;8.10;4.82;;;;;;;15.97;91.86;100596.59;5113967;27;20047;-54
2024/04/07 02:10:35;;;;;;;9.40;5.13;;;;;;;15.98;92.16;100590.22;5097066;28;20385;-55
2024/04/07 02:13:03;;;;;;;8.63;5.13;;;;;;;16.04;92.42;100594.28;5113829;27;20074;-54
2024/04/07 02:15:34;;;;;;;9.13;5.10;;;;;;;16.07;91.05;100590.50;5114036;27;20534;-53
2024/04/07 02:18:01;;;;;;;8.68;4.88;;;;;;;16.13;90.45;100592.72;5114139;27;20420;-53
2024/04/07 02:20:28;;;;;;;13.05;4.82;;;;;;;16.11;91.26;100589.28;5113835;27;20075;-53
2024/04/07 02:22:55;;;;;;;10.57;5.70;;;;;;;16.12;90.59;100585.63;5113741;28;20047;-51
2024/04/07 02:25:21;;;;;;;8.82;5.20;;;;;;;16.16;90.42;100581.72;5113874;28;20047;-54
2024/04/07 02:27:49;;;;;;;9.50;5.63;;;;;;;15.88;93.03;100578.47;5113596;27;20043;-54
2024/04/07 02:30:16;;;;;;;8.77;5.82;;;;;;;16.01;92.23;100573.84;5113947;28;20058;-56
2024/04/07 02:32:44;;;;;;;11.50;5.22;;;;;;;15.77;94.52;100581.13;5113910;28;20124;-56
2024/04/07 02:35:12;;;;;;;10.55;5.43;;;;;;;15.90;93.55;100576.50;5113544;28;20043;-52
2024/04/07 02:37:39;;;;;;;11.20;5.75;;;;;;;15.77;95.32;100583.81;5113750;28;20442;-53
2024/04/07 02:40:08;;;;;;;9.63;5.45;;;;;;;15.84;95.02;100586.91;5113611;28;20039;-55
2024/04/07 02:42:36;;;;;;;9.13;5.57;;;;;;;15.79;94.65;100583.69;5113537;27;20051;-55
2024/04/07 02:48:05;;;;;;;11.35;5.22;;;;;;;15.86;94.74;100582.25;5113716;28;20043;-57
2024/04/07 02:50:33;;;;;;;9.93;4.85;;;;;;;15.87;95.02;100586.66;5113091;28;20479;-54
2024/04/07 02:53:00;;;;;;;9.55;5.32;;;;;;;15.91;93.96;100580.91;5113484;27;20061;-56
2024/04/07 02:55:27;;;;;;;8.68;5.70;;;;;;;15.82;95.36;100584.31;5113864;28;20095;-56
2024/04/07 02:57:54;;;;;;;10.10;5.75;;;;;;;15.73;95.87;100585.03;5117172;27;20122;-57
2024/04/07 03:00:21;;;;;;;10.82;5.72;;;;;;;15.60;97.25;100584.22;5117233;27;20483;-54
2024/04/07 03:02:48;;;;;;;11.10;5.40;;;;;;;15.41;99.07;100590.97;5117349;27;20051;-56
2024/04/07 03:05:16;;;;;;;8.48;5.32;;;;;;;15.41;100.00;100596.34;5117226;27;20047;-57
2024/04/07 03:07:44;;;;;;;9.35;5.35;;;;;;;15.59;98.08;100604.00;5117163;27;20051;-56
2024/04/07 03:10:10;;;;;;;9.77;5.82;;;;;;;15.53;98.95;100607.13;5117388;27;20058;-55
2024/04/07 03:12:38;;;;;;;10.68;6.00;;;;;;;15.44;100.00;100606.88;5117410;27;20043;-56
2024/04/07 03:15:05;;;;;;;10.43;5.75;;;;;;;15.51;99.36;100607.25;5117283;27;20051;-56
2024/04/07 03:17:32;;;;;;;9.10;5.60;;;;;;;15.34;100.00;100607.66;5117259;27;20043;-52
2024/04/07 03:19:59;;;;;;;11.13;5.78;;;;;;;15.50;99.97;100605.56;5121795;27;20058;-57
2024/04/07 03:22:27;;;;;;;11.10;5.22;;;;;;;15.57;99.81;100608.66;5123770;27;20046;-56
2024/04/07 03:24:53;;;;;;;9.25;6.32;;;;;;;15.67;98.17;100607.88;5123424;27;20099;-57
2024/04/07 03:27:21;;;;;;;10.40;5.80;;;;;;;15.62;97.45;100606.47;5122865;27;20044;-57
2024/04/07 03:29:47;;;;;;;9.55;5.57;;;;;;;15.69;96.71;100611.28;5120209;27;20051;-56
2024/04/07 03:32:14;;;;;;;11.07;6.13;;;;;;;15.62;97.64;100611.88;5116765;27;20083;-56
2024/04/07 03:34:41;;;;;;;9.73;5.40;;;;;;;15.66;97.17;100614.22;5116669;27;20057;-57
2024/04/07 03:37:08;;;;;;;9.30;5.47;;;;;;;15.63;96.90;100622.53;5116869;27;20043;-57
2024/04/07 03:39:37;;;;;;;10.70;6.43;;;;;;;15.42;98.70;100619.56;5116862;27;20100;-56
2024/04/07 03:42:05;;;;;;;10.80;6.03;;;;;;;15.32;100.00;100629.28;5116704;27;20047;-55
2024/04/07 03:44:33;;;;;;;11.05;6.13;;;;;;;15.43;99.67;100626.66;5116656;27;20514;-55
2024/04/07 03:47:01;;;;;;;11.55;6.22;;;;;;;15.28;100.00;100633.19;5116450;27;20480;-57
2024/04/07 03:49:28;;;;;;;11.30;5.80;;;;;;;15.44;98.93;100625.69;5116640;27;20047;-55
2024/04/07 03:51:55;;;;;;;11.35;5.82;;;;;;;15.33;99.74;100649.81;5116503;27;20453;-57
2024/04/07 03:54:21;;;;;;;10.52;5.50;;;;;;;15.41;98.93;100644.72;5116580;27;20043;-57
2024/04/07 03:56:50;;;;;;;12.65;6.22;;;;;;;15.29;99.87;100644.78;5116308;27;20059;-57
2024/04/07 03:59:16;;;;;;;11.00;5.93;;;;;;;15.18;100.00;100642.88;5116396;27;20047;-58
2024/04/07 04:01:44;;;;;;;10.80;6.13;;;;;;;15.11;100.00;100647.84;5116091;27;20411;-55
2024/04/07 04:04:10;;;;;;;9.63;6.20;;;;;;;14.88;100.00;100657.56;5116476;27;20058;-57
2024/04/07 04:06:38;;;;;;;11.13;6.13;;;;;;;14.94;100.00;100663.44;5116247;27;20047;-56
2024/04/07 04:09:05;;;;;;;11.57;5.88;;;;;;;14.96;100.00;100658.81;5115682;27;20039;-55
2024/04/07 04:11:32;;;;;;;11.77;6.85;;;;;;;15.03;100.00;100666.34;5115968;27;20516;-55
2024/04/07 04:14:01;;;;;;;15.27;6.32;;;;;;;15.10;100.00;100670.31;5116488;27;20489;-58
2024/04/07 04:16:28;;;;;;;9.82;6.28;;;;;;;15.34;100.00;100669.47;5115714;27;20065;-56
2024/04/07 04:18:55;;;;;;;9.48;6.00;;;;;;;15.40;98.98;100675.28;5116104;27;20055;-57
2024/04/07 04:21:22;;;;;;;10.38;6.60;;;;;;;15.23;100.00;100675.63;5115816;27;20047;-55
2024/04/07 04:23:48;;;;;;;12.27;5.82;;;;;;;15.27;98.98;100666.41;5115669;27;20051;-57
2024/04/07 04:26:16;;;;;;;8.65;5.70;;;;;;;15.29;98.17;100675.19;5115831;27;20134;-55
2024/04/07 04:28:44;;;;;;;10.65;6.07;;;;;;;15.29;98.54;100667.13;5115653;27;20092;-57
2024/04/07 04:31:12;;;;;;;12.23;6.15;;;;;;;15.06;99.82;100670.66;5115349;27;20043;-57
2024/04/07 04:33:39;;;;;;;10.63;6.60;;;;;;;15.03;100.00;100677.09;5115727;27;20055;-54
2024/04/07 04:36:12;;;;;;;11.73;6.55;;;;;;;14.90;100.00;100676.25;5115802;27;20039;-57
2024/04/07 04:38:39;;;;;;;9.73;6.72;;;;;;;15.12;100.00;100681.78;5115650;27;20083;-57
2024/04/07 04:41:05;;;;;;;10.85;6.43;;;;;;;15.30;98.75;100684.13;5115803;27;20503;-56
2024/04/07 04:43:33;;;;;;;13.95;7.03;;;;;;;15.35;98.02;100687.34;5115184;27;20047;-55
2024/04/07 04:46:01;;;;;;;13.27;7.30;;;;;;;15.16;99.14;100686.00;5115274;27;20043;-55
2024/04/07 04:48:30;;;;;;;15.50;6.68;;;;;;;15.13;99.07;100685.34;5115215;27;20256;-55
2024/04/07 04:50:57;;;;;;;10.93;6.47;;;;;;;15.14;99.68;100684.38;5115400;27;20071;-56
2024/04/07 04:53:24;;;;;;;11.35;6.50;;;;;;;15.07;100.00;100694.72;5115340;27;20130;-57
2024/04/07 04:55:51;;;;;;;9.25;6.60;;;;;;;15.10;99.97;100693.63;5115126;27;20058;-57
2024/04/07 04:58:19;;;;;;;12.00;6.03;;;;;;;15.42;97.16;100689.44;5115006;27;20098;-57
2024/04/07 05:00:46;;;;;;;11.32;6.68;;;;;;;15.58;95.33;100688.34;5115392;27;20126;-57
2024/04/07 05:03:14;;;;;;;12.05;7.00;;;;;;;15.44;96.49;100697.41;5115109;27;20055;-56
2024/04/07 05:05:42;;;;;;;10.52;7.05;;;;;;;15.52;95.35;100689.63;5114964;27;20509;-55
2024/04/07 05:08:09;;;;;;;11.52;6.45;;;;;;;15.69;94.18;100701.88;5114909;27;20046;-57
2024/04/07 05:10:35;;;;;;;10.00;6.97;;;;;;;15.87;92.91;100695.13;5114878;27;20047;-55
2024/04/07 05:13:02;;;;;;;10.82;6.35;;;;;;;15.87;91.83;100689.72;5114711;27;20043;-57
2024/04/07 05:15:29;;;;;;;10.93;6.15;;;;;;;15.72;93.45;100701.63;5115058;27;20054;-54
2024/04/07 05:17:56;;;;;;;10.43;6.05;;;;;;;15.77;92.71;100699.47;5114953;27;20043;-57
2024/04/07 05:20:22;;;;;;;10.82;5.82;;;;;;;15.83;92.37;100699.03;5113739;27;20054;-54
2024/04/07 05:22:51;;;;;;;9.90;6.45;;;;;;;15.78;92.59;100701.19;5114604;27;20098;-56
2024/04/07 05:25:18;;;;;;;10.07;5.78;;;;;;;16.02;91.14;100693.97;5114517;27;20108;-56
2024/04/07 05:27:45;;;;;;;8.13;5.45;;;;;;;16.18;89.21;100699.03;5114664;27;20082;-57
2024/04/07 05:30:13;;;;;;;11.60;5.82;;;;;;;16.14;89.53;100697.56;5114471;28;20057;-57
2024/04/07 05:32:40;;;;;;;10.77;5.70;;;;;;;16.37;88.29;100703.00;5114838;27;20142;-56
2024/04/07 05:35:08;;;;;;;10.18;5.60;;;;;;;16.17;89.39;100707.22;5114439;27;20487;-58
2024/04/07 05:37:35;;;;;;;9.35;5.53;;;;;;;16.46;88.74;100703.13;5114430;27;20101;-58
2024/04/07 05:40:05;;;;;;;10.57;5.60;;;;;;;16.22;90.15;100710.44;5114284;27;20065;-57
2024/04/07 05:42:32;;;;;;;8.60;5.40;;;;;;;16.25;90.13;100707.50;5114506;27;20043;-56
2024/04/07 05:44:58;;;;;;;9.80;5.97;;;;;;;16.27;90.28;100708.22;5114256;27;20080;-57
2024/04/07 05:47:25;;;;;;;12.23;6.40;;;;;;;16.59;88.02;100709.28;5114203;27;20039;-54
2024/04/07 05:49:52;;;;;;;8.57;5.93;;;;;;;16.35;89.22;100705.81;5114039;27;20541;-56
2024/04/07 05:52:19;;;;;;;10.95;6.07;;;;;;;16.57;88.12;100705.84;5114079;28;20043;-55
2024/04/07 05:54:45;;;;;;;11.38;6.35;;;;;;;16.75;87.14;100708.13;5113960;27;20082;-54
2024/04/07 05:57:14;;;;;;;9.55;6.38;;;;;;;16.85;86.10;100711.81;5114150;27;20078;-55
2024/04/07 05:59:40;;;;;;;11.18;6.57;;;;;;;16.95;86.12;100709.25;5113986;27;20047;-55
2024/04/07 06:02:08;;;;;;;9.70;5.35;;;;;;;16.83;86.49;100713.78;5114023;27;20131;-54
2024/04/07 06:04:34;;;;;;;10.20;5.40;;;;;;;17.21;84.61;100710.72;5113960;27;20043;-57
2024/04/07 06:07:02;;;;;;;8.40;5.47;;;;;;;17.06;85.59;100699.31;5113956;27;20065;-55
2024/04/07 06:09:28;;;;;;;8.35;5.22;;;;;;;17.05;85.32;100702.13;5096936;27;20484;-52
2024/04/07 06:11:55;;;;;;;9.20;5.55;;;;;;;17.20;84.30;100708.16;5113823;27;20051;-56
2024/04/07 06:14:23;;;;;;;8.43;5.57;;;;;;;17.24;84.50;100705.06;5114189;27;20039;-54
2024/04/07 06:16:51;;;;;;;10.77;5.38;;;;;;;17.09;85.20;100712.56;5127804;27;20074;-53
2024/04/07 06:19:17;;;;;;;9.90;5.32;;;;;;;17.09;86.18;100712.56;5134871;27;20042;-55
2024/04/07 06:21:44;;;;;;;10.63;6.13;;;;;;;17.29;85.57;100719.03;5137804;27;20166;-54
2024/04/07 06:24:11;;;;;;;8.80;5.63;;;;;;;17.28;85.60;100727.25;5134184;27;20059;-55
2024/04/07 06:26:38;;;;;;;10.20;6.00;;;;;;;17.33;85.21;100730.44;5136145;28;20046;-58
2024/04/07 06:29:04;;;;;;;9.95;5.68;;;;;;;17.32;85.95;100729.56;5138110;27;20053;-55
2024/04/07 06:31:33;;;;;;;9.48;5.63;;;;;;;17.43;85.49;100731.41;5140463;27;20076;-53
2024/04/07 06:33:59;;;;;;;9.80;6.10;;;;;;;17.62;84.56;100730.75;5138679;27;20055;-55
2024/04/07 06:36:26;;;;;;;10.23;6.25;;;;;;;17.63;83.92;100738.72;5138237;27;20047;-56
2024/04/07 06:38:52;;;;;;;8.93;5.85;;;;;;;17.73;83.76;100746.94;5138577;27;20095;-55
2024/04/07 06:41:23;;;;;;;10.57;6.28;;;;;;;17.89;82.64;100746.53;5138532;27;20047;-56
2024/04/07 06:43:49;;;;;;;10.70;5.65;;;;;;;18.09;81.20;100745.72;5126283;27;20082;-56
2024/04/07 06:46:16;;;;;;;10.35;6.22;;;;;;;17.93;81.75;100740.75;5097269;28;20039;-57
2024/04/07 06:48:44;;;;;;;8.65;5.85;;;;;;;18.12;80.05;100744.63;5097198;28;20580;-52
2024/04/07 06:51:11;;;;;;;9.40;5.97;;;;;;;18.29;80.38;100744.91;5097129;28;20123;-56
2024/04/07 06:53:38;;;;;;;11.20;6.85;;;;;;;18.34;79.98;100743.69;5097445;28;20126;-56
2024/04/07 06:56:05;;;;;;;10.63;6.18;;;;;;;18.13;80.41;100747.19;5097229;28;20393;-56
2024/04/07 06:58:33;;;;;;;10.00;6.25;;;;;;;18.50;79.49;100750.31;5114452;27;20480;-55
2024/04/07 07:01:01;;;;;;;10.52;5.78;;;;;;;18.60;78.12;100750.41;5120944;27;20043;-54
2024/04/07 07:03:27;;;;;;;8.98;5.60;;;;;;;19.00;76.96;100763.19;5118569;27;20561;-55
2024/04/07 07:05:56;;;;;;;7.97;5.43;;;;;;;18.84;76.60;100769.94;5117116;27;20043;-57
2024/04/07 07:08:22;;;;;;;10.38;5.90;;;;;;;18.76;77.33;100771.59;5117593;27;20051;-53
2024/04/07 07:10:59;;;;;;;7.75;5.50;;;;;;;18.88;77.15;100782.19;5117155;27;20534;-57
2024/04/07 07:13:26;;;;;;;9.80;5.57;;;;;;;19.11;75.29;100782.06;5117170;27;20039;-56
2024/04/07 07:15:53;;;;;;;9.30;6.00;;;;;;;19.17;75.61;100789.59;5117004;27;20079;-55
2024/04/07 07:18:20;;;;;;;8.93;5.60;;;;;;;19.21;75.05;100796.47;5117135;27;20089;-55
2024/04/07 07:20:47;;;;;;;8.57;5.18;;;;;;;19.22;74.99;100803.59;5116733;27;20046;-56
2024/04/07 07:23:16;;;;;;;8.25;5.30;;;;;;;19.29;74.24;100796.63;5116317;27;20396;-57
2024/04/07 07:25:44;;;;;;;7.93;5.43;;;;;;;19.43;73.36;100799.00;5117142;27;20049;-55
2024/04/07 07:28:10;;;;;;;10.48;5.88;;;;;;;19.62;73.00;100798.25;5116930;27;20043;-56
2024/04/07 07:30:38;;;;;;;9.93;5.70;;;;;;;19.88;71.65;100790.50;5116920;27;20439;-56
2024/04/07 07:33:05;;;;;;;9.73;5.35;;;;;;;20.12;70.64;100787.38;5116720;27;20446;-54
2024/04/07 07:35:34;;;;;;;9.85;5.43;;;;;;;20.36;70.22;100789.66;5116957;27;20509;-54
2024/04/07 07:38:00;;;;;;;10.30;5.88;;;;;;;20.20;69.64;100792.97;5116846;27;20907;-56
2024/04/07 07:40:29;;;;;;;14.48;6.13;;;;;;;20.09;69.56;100800.38;5116692;27;20065;-55
2024/04/07 07:42:55;;;;;;;8.90;6.00;;;;;;;20.30;69.33;100792.97;5115196;27;20051;-53
2024/04/07 07:45:22;;;;;;;11.35;6.10;;;;;;;20.36;69.13;100791.53;5116496;27;20522;-57
2024/04/07 07:47:52;;;;;;;9.65;5.15;;;;;;;20.39;68.32;100794.81;5116394;27;20054;-54
2024/04/07 07:50:19;;;;;;;7.13;4.93;;;;;;;20.43;67.99;100792.72;5116805;27;20043;-57
2024/04/07 07:52:46;;;;;;;8.07;5.35;;;;;;;20.51;68.36;100790.16;5116503;27;20045;-56
2024/04/07 07:55:14;;;;;;;8.05;4.88;;;;;;;20.75;67.58;100781.53;5116529;27;20051;-56
2024/04/07 07:57:42;;;;;;;8.00;4.95;;;;;;;20.73;67.05;100783.56;5116384;27;20089;-54
2024/04/07 08:00:11;;;;;;;8.57;4.97;;;;;;;20.71;66.82;100785.56;5115999;27;20047;-54
2024/04/07 08:02:38;;;;;;;7.22;4.65;;;;;;;20.88;65.95;100778.56;5116426;27;20050;-56
2024/04/07 08:05:05;;;;;;;7.53;4.63;;;;;;;21.06;64.82;100784.94;5116536;27;20054;-60
2024/04/07 08:07:32;;;;;;;5.85;3.80;;;;;;;21.15;64.55;100790.31;5116355;27;20057;-56
2024/04/07 08:09:59;;;;;;;9.65;4.00;;;;;;;21.48;62.27;100787.22;5116176;27;20043;-57
2024/04/07 08:12:27;;;;;;;8.40;3.70;;;;;;;21.71;61.89;100786.69;5116057;27;20043;-56
2024/04/07 08:14:56;;;;;;;7.63;3.80;;;;;;;21.75;60.99;100783.69;5115879;27;20058;-58
2024/04/07 08:17:23;;;;;;;5.93;3.22;;;;;;;21.79;60.92;100785.06;5115986;27;20122;-56
2024/04/07 08:19:50;;;;;;;7.43;3.92;;;;;;;22.06;60.10;100781.47;5115983;27;20509;-55
2024/04/07 08:22:17;;;;;;;6.68;3.58;;;;;;;22.14;60.19;100776.16;5116123;27;20414;-55
2024/04/07 08:24:45;;;;;;;8.25;3.63;;;;;;;22.15;59.31;100770.56;5115672;27;20424;-55
2024/04/07 08:27:12;;;;;;;5.78;3.20;;;;;;;22.22;59.05;100778.97;5115507;27;20050;-54
2024/04/07 08:29:39;;;;;;;5.97;3.60;;;;;;;22.14;60.41;100776.16;5115664;27;20054;-55
2024/04/07 08:32:08;;;;;;;7.50;3.38;;;;;;;22.50;58.79;100782.47;5116087;27;20047;-57
2024/04/07 08:34:35;;;;;;;7.43;3.70;;;;;;;22.79;57.29;100777.59;5119243;27;20051;-56
2024/04/07 08:37:03;;;;;;;12.18;3.60;;;;;;;23.03;56.68;100790.53;5117356;27;20057;-55
2024/04/07 08:39:29;;;;;;;6.05;3.10;;;;;;;23.28;55.82;100783.38;5115605;27;20043;-54
2024/04/07 08:41:59;;;;;;;5.55;3.00;;;;;;;23.29;55.87;100778.81;5115109;27;20046;-53
2024/04/07 08:44:26;;;;;;;5.55;2.63;;;;;;;23.23;51.76;100783.00;5115265;27;20051;-56
2024/04/07 08:46:55;;;;;;;6.30;2.60;;;;;;;23.31;50.70;100782.22;5115109;27;20600;-56
2024/04/07 08:49:25;;;;;;;4.15;2.40;;;;;;;23.02;51.31;100782.53;5115346;27;20054;-53
2024/04/07 08:51:53;;;;;;;4.40;2.40;;;;;;;23.02;52.69;100777.94;5115041;27;20126;-54
2024/04/07 08:54:19;;;;;;;5.53;2.90;;;;;;;22.88;52.22;100781.28;5114825;27;20043;-57
2024/04/07 08:56:47;;;;;;;4.50;2.50;;;;;;;22.99;51.60;100772.00;5114944;27;20047;-54
2024/04/07 08:59:14;;;;;;;5.70;2.75;;;;;;;23.04;51.67;100775.91;5115050;27;20047;-54
2024/04/07 09:01:46;;;;;;;5.70;2.70;;;;;;;23.30;51.30;100781.34;5115086;27;20043;-56
2024/04/07 09:04:13;;;;;;;6.35;2.53;;;;;;;23.19;51.85;100778.91;5114888;27;20051;-54
2024/04/07 09:06:42;;;;;;;4.70;2.33;;;;;;;23.07;51.50;100782.94;5115008;27;20047;-57
2024/04/07 09:09:08;;;;;;;4.38;2.58;;;;;;;23.21;50.62;100785.03;5114639;27;20130;-54
2024/04/07 09:11:37;;;;;;;3.95;2.30;;;;;;;23.30;49.90;100792.25;5114929;27;20043;-52
2024/04/07 09:14:05;;;;;;;4.00;2.20;;;;;;;23.16;49.60;100789.25;5114688;27;20043;-58
2024/04/07 09:16:33;;;;;;;4.57;2.50;;;;;;;23.23;50.32;100787.59;5114429;27;20063;-54
2024/04/07 09:19:00;;;;;;;6.75;3.30;;;;;;;23.27;50.43;100781.69;5114605;27;20130;-55
2024/04/07 09:21:28;;;;;;;8.77;4.50;;;;;;;23.60;50.16;100776.44;5114229;27;20126;-57
2024/04/07 09:23:55;;;;;;;7.00;3.22;;;;;;;23.71;50.20;100784.28;5113951;27;20051;-54
2024/04/07 09:26:22;;;;;;;5.50;2.45;;;;;;;23.80;49.50;100793.34;5113360;27;20449;-56
2024/04/07 09:28:49;;;;;;;5.85;2.53;;;;;;;23.62;49.52;100785.28;5113340;27;20047;-54
2024/04/07 09:31:18;;;;;;;8.13;2.92;;;;;;;23.91;48.83;100785.72;5113268;27;20039;-55
2024/04/07 09:33:47;;;;;;;6.40;2.50;;;;;;;23.46;49.24;100787.91;5114087;27;20046;-54
2024/04/07 09:36:14;;;;;;;5.70;2.90;;;;;;;23.40;49.51;100790.25;5114338;27;20485;-55
2024/04/07 09:38:40;;;;;;;4.60;2.33;;;;;;;23.33;49.95;100786.47;5114585;27;20039;-52
2024/04/07 09:41:11;;;;;;;6.00;2.60;;;;;;;23.31;50.14;100793.94;5114312;27;20039;-54
2024/04/07 09:43:40;;;;;;;4.93;2.55;;;;;;;23.42;49.63;100790.94;5115341;27;20432;-57
2024/04/07 09:46:10;;;;;;;4.78;2.50;;;;;;;23.79;49.72;100786.19;5117141;27;20051;-55
2024/04/07 09:48:38;;;;;;;4.53;2.20;;;;;;;23.71;47.41;100787.00;5117264;27;20109;-56
2024/04/07 09:51:06;;;;;;;5.47;2.47;;;;;;;23.59;48.50;100788.34;5116572;27;20043;-57
2024/04/07 09:53:39;;;;;;;5.22;2.35;;;;;;;23.84;48.40;100783.84;5117534;27;20055;-57
2024/04/07 09:56:15;;;;;;;6.40;2.50;;;;;;;23.86;48.76;100788.09;5114604;27;20466;-53
2024/04/07 09:58:42;;;;;;;5.30;2.30;;;;;;;23.87;48.98;100781.63;5113975;27;20096;-53
2024/04/07 10:01:10;;;;;;;6.57;2.55;;;;;;;23.85;48.44;100783.69;5113941;27;20047;-58
2024/04/07 10:03:38;;;;;;;5.82;2.67;;;;;;;23.88;47.40;100777.88;5113625;27;20433;-59
2024/04/07 10:06:06;;;;;;;4.10;2.03;;;;;;;23.83;47.24;100777.53;5113112;27;20039;-59
2024/04/07 10:08:34;;;;;;;6.43;2.92;;;;;;;23.84;47.57;100776.53;5114026;27;20141;-56
2024/04/07 10:11:01;;;;;;;5.55;2.30;;;;;;;23.66;47.61;100773.91;5113376;27;20047;-56
2024/04/07 10:13:32;;;;;;;4.50;2.60;;;;;;;23.61;48.31;100775.41;5113531;27;20142;-57
2024/04/07 10:16:02;;;;;;;4.57;2.38;;;;;;;23.85;47.26;100774.66;5113284;27;20085;-56
2024/04/07 10:18:29;;;;;;;7.72;2.70;;;;;;;23.89;47.12;100774.16;5113551;27;20057;-57
2024/04/07 10:20:56;;;;;;;5.85;2.40;;;;;;;24.19;46.96;100778.13;5113634;27;20043;-56
2024/04/07 10:23:25;;;;;;;4.47;2.28;;;;;;;23.93;47.14;100775.53;5113511;28;20047;-57
2024/04/07 10:25:59;;;;;;;5.18;2.40;;;;;;;24.18;47.87;100773.69;5114363;27;20504;-58
2024/04/07 10:28:25;;;;;;;4.55;2.30;;;;;;;23.74;46.74;100774.94;5114498;28;20042;-59
2024/04/07 10:30:59;;;;;;;4.40;2.33;;;;;;;23.95;47.60;100770.75;5114043;28;20039;-60
2024/04/07 10:33:28;;;;;;;5.95;2.65;;;;;;;23.86;47.22;100766.31;5113448;28;20104;-57
2024/04/07 10:35:57;;;;;;;3.90;2.38;;;;;;;23.99;47.80;100772.13;5113398;28;20047;-56
2024/04/07 10:38:23;;;;;;;5.43;2.40;;;;;;;24.02;47.43;100759.19;5113386;28;20043;-59
2024/04/07 10:40:53;;;;;;;4.78;2.53;;;;;;;24.06;47.52;100766.03;5113547;28;20126;-56
2024/04/07 10:43:20;;;;;;;4.47;2.30;;;;;;;23.97;46.91;100762.41;5113230;28;20139;-57
2024/04/07 10:45:48;;;;;;;4.65;2.40;;;;;;;24.07;47.17;100762.28;5113101;28;20048;-58
2024/04/07 10:48:17;;;;;;;4.43;2.40;;;;;;;24.12;47.55;100759.88;5113366;28;20124;-58
2024/04/07 10:50:44;;;;;;;7.15;2.65;;;;;;;24.11;47.74;100763.63;5113343;28;20051;-58
2024/04/07 10:53:13;;;;;;;5.03;2.33;;;;;;;23.99;47.25;100763.94;5113193;28;20088;-56
2024/04/07 10:55:40;;;;;;;4.93;2.40;;;;;;;24.23;46.79;100759.59;5113171;28;20412;-58
2024/04/07 10:58:06;;;;;;;4.68;2.40;;;;;;;24.22;46.85;100760.56;5113201;28;20130;-58
2024/04/07 11:00:34;;;;;;;4.68;2.60;;;;;;;24.34;47.10;100763.88;5113138;28;20066;-55
2024/04/07 11:03:01;;;;;;;5.95;2.53;;;;;;;24.48;46.31;100765.91;5113259;28;20054;-57
2024/04/07 11:05:29;;;;;;;5.20;2.33;;;;;;;24.54;45.48;100759.81;5113157;28;20416;-55
2024/04/07 11:07:56;;;;;;;5.10;2.50;;;;;;;24.40;47.07;100758.59;5113331;28;20062;-56
2024/04/07 11:10:23;;;;;;;7.13;2.63;;;;;;;24.57;45.74;100753.16;5114199;28;20046;-54
2024/04/07 11:12:50;;;;;;;5.43;2.60;;;;;;;24.75;44.98;100759.28;5113949;28;20039;-58
2024/04/07 11:15:19;;;;;;;4.05;2.30;;;;;;;24.82;45.93;100757.56;5113584;28;20051;-59
2024/04/07 11:17:46;;;;;;;6.45;2.40;;;;;;;24.68;46.85;100760.97;5115882;27;20104;-57
2024/04/07 11:20:13;;;;;;;6.18;2.55;;;;;;;24.44;46.21;100761.84;5118400;27;20043;-59
2024/04/07 11:22:41;;;;;;;5.10;2.40;;;;;;;24.59;45.89;100751.09;5117289;27;20043;-58
2024/04/07 11:25:11;;;;;;;5.70;2.90;;;;;;;24.71;44.92;100747.00;5116635;27;20065;-59